createdAt,value
2023-01-11T00:00:44.807Z,100046.41
2023-01-11T00:03:12.769Z,100026.41
2023-01-11T00:05:41.421Z,100024.69
2023-01-11T00:08:09.328Z,100024.47
2023-01-11T00:10:37.131Z,100040.34
2023-01-11T00:13:04.908Z,100038.09
2023-01-11T00:15:32.443Z,100038.81
2023-01-11T00:18:00.148Z,100041.31
2023-01-11T00:20:27.970Z,100033.34
2023-01-11T00:22:55.340Z,100040.44
2023-01-11T00:25:23.081Z,100039.12
2023-01-11T00:27:50.715Z,100034.25
2023-01-11T00:30:18.632Z,100038.78
2023-01-11T00:32:46.320Z,100046.59
2023-01-11T00:35:13.729Z,100042.12
2023-01-11T00:37:41.207Z,100044.88
2023-01-11T00:40:09.289Z,100058.53
2023-01-11T00:42:55.353Z,100052.78
2023-01-11T00:45:42.008Z,100055.47
2023-01-11T00:48:10.814Z,100054.72
2023-01-11T00:50:40.199Z,100059.66
2023-01-11T00:53:08.651Z,100066.06
2023-01-11T00:55:36.584Z,100072.47
2023-01-11T00:58:04.714Z,100067.84
2023-01-11T01:00:32.179Z,100072.72
2023-01-11T01:02:59.729Z,100071.50
2023-01-11T01:05:27.610Z,100078.50
2023-01-11T01:07:55.000Z,100077.81
2023-01-11T01:10:22.361Z,100086.22
2023-01-11T01:13:08.279Z,100082.13
2023-01-11T01:15:36.173Z,100078.91
2023-01-11T01:18:03.963Z,100086.16
2023-01-11T01:20:31.380Z,100080.69
2023-01-11T01:22:58.771Z,100082.84
2023-01-11T01:25:26.443Z,100072.34
2023-01-11T01:27:53.823Z,100068.28
2023-01-11T01:30:21.214Z,100074.53
2023-01-11T01:32:48.929Z,100078.97
2023-01-11T01:35:16.288Z,100071.56
2023-01-11T01:37:44.748Z,100067.91
2023-01-11T01:40:13.071Z,100073.81
2023-01-11T01:42:40.450Z,100060.19
2023-01-11T01:45:18.377Z,100067.47
2023-01-11T01:47:48.286Z,100076.00
2023-01-11T01:50:27.923Z,100080.87
2023-01-11T01:52:59.801Z,100068.44
2023-01-11T01:55:31.796Z,100085.09
2023-01-11T01:58:00.709Z,100082.50
2023-01-11T02:00:28.117Z,100090.19
2023-01-11T02:02:57.626Z,100081.47
2023-01-11T02:05:25.579Z,100092.16
2023-01-11T02:07:56.199Z,100087.44
2023-01-11T02:10:23.649Z,100084.81
2023-01-11T02:13:02.800Z,100087.25
2023-01-11T02:15:30.544Z,100088.28
2023-01-11T02:17:58.384Z,100086.69
2023-01-11T02:20:53.308Z,100080.84
2023-01-11T02:23:39.223Z,100094.69
2023-01-11T02:26:27.798Z,100099.34
2023-01-11T02:29:22.853Z,100115.03
2023-01-11T02:31:59.189Z,100110.44
2023-01-11T02:34:35.504Z,100116.28
2023-01-11T02:37:12.078Z,100108.63
2023-01-11T02:40:07.246Z,100111.84
2023-01-11T02:43:19.991Z,100127.97
2023-01-11T02:46:06.245Z,100127.09
2023-01-11T02:49:27.755Z,100117.38
2023-01-11T02:52:01.897Z,100117.00
2023-01-11T02:54:29.870Z,100114.50
2023-01-11T02:56:59.168Z,100115.78
2023-01-11T02:59:32.619Z,100129.16
2023-01-11T03:02:00.587Z,100109.13
2023-01-11T03:04:37.239Z,100123.69
2023-01-11T03:07:14.253Z,100116.62
2023-01-11T03:09:59.865Z,100123.19
2023-01-11T03:13:03.457Z,100120.16
2023-01-11T03:16:01.465Z,100126.03
2023-01-11T03:18:49.193Z,100131.19
2023-01-11T03:21:58.311Z,100133.97
2023-01-11T03:24:31.297Z,100115.91
2023-01-11T03:27:04.807Z,100113.03
2023-01-11T03:29:37.589Z,100121.38
2023-01-11T03:32:11.118Z,100115.03
2023-01-11T03:34:52.927Z,100112.56
2023-01-11T03:37:28.681Z,100131.09
2023-01-11T03:40:05.648Z,100136.28
2023-01-11T03:42:33.959Z,100138.84
2023-01-11T03:45:03.198Z,100139.44
2023-01-11T03:47:32.949Z,100140.94
2023-01-11T03:50:05.339Z,100143.09
2023-01-11T03:52:38.398Z,100134.31
2023-01-11T03:55:08.245Z,100131.00
2023-01-11T03:57:43.238Z,100125.91
2023-01-11T04:00:11.707Z,100132.34
2023-01-11T04:02:40.614Z,100124.19
2023-01-11T04:05:10.058Z,100116.94
2023-01-11T04:07:37.558Z,100108.34
2023-01-11T04:10:05.883Z,100110.59
2023-01-11T04:12:33.301Z,100091.97
2023-01-11T04:15:03.139Z,100103.88
2023-01-11T04:17:32.379Z,100095.31
2023-01-11T04:19:59.752Z,100101.87
2023-01-11T04:22:27.106Z,100106.00
2023-01-11T04:24:54.820Z,100113.06
2023-01-11T04:27:22.153Z,100118.72
2023-01-11T04:29:49.507Z,100120.50
2023-01-11T04:32:17.203Z,100128.00
2023-01-11T04:34:44.552Z,100127.88
2023-01-11T04:37:12.103Z,100136.53
2023-01-11T04:39:39.756Z,100133.19
2023-01-11T04:42:19.091Z,100127.28
2023-01-11T04:44:48.926Z,100129.97
2023-01-11T04:47:17.486Z,100137.12
2023-01-11T04:49:45.532Z,100138.47
2023-01-11T04:52:15.156Z,100132.97
2023-01-11T04:54:43.915Z,100134.66
2023-01-11T04:57:13.390Z,100133.91
2023-01-11T04:59:41.156Z,100143.25
2023-01-11T05:02:08.679Z,100148.28
2023-01-11T05:04:36.098Z,100147.16
2023-01-11T05:07:03.825Z,100132.06
2023-01-11T05:09:31.555Z,100140.88
2023-01-11T05:11:58.948Z,100127.94
2023-01-11T05:14:26.610Z,100128.72
2023-01-11T05:16:54.077Z,100134.25
2023-01-11T05:19:21.559Z,100155.87
2023-01-11T05:21:49.289Z,100174.22
2023-01-11T05:24:17.187Z,100172.59
2023-01-11T05:26:45.123Z,100162.53
2023-01-11T05:29:16.429Z,100153.50
2023-01-11T05:31:43.975Z,100154.06
2023-01-11T05:34:13.525Z,100165.16
2023-01-11T05:36:41.615Z,100163.91
2023-01-11T05:39:09.379Z,100150.34
2023-01-11T05:41:36.799Z,100154.75
2023-01-11T05:44:23.610Z,100171.16
2023-01-11T05:46:51.008Z,100166.47
2023-01-11T05:49:18.766Z,100154.38
2023-01-11T05:51:46.149Z,100157.34
2023-01-11T05:54:14.748Z,100158.44
2023-01-11T05:56:43.028Z,100148.91
2023-01-11T05:59:10.660Z,100153.38
2023-01-11T06:01:38.385Z,100134.22
2023-01-11T06:04:06.481Z,100133.34
2023-01-11T06:06:34.159Z,100137.72
2023-01-11T06:09:01.614Z,100133.66
2023-01-11T06:11:29.425Z,100132.37
2023-01-11T06:13:56.800Z,100141.47
2023-01-11T06:16:24.366Z,100148.16
2023-01-11T06:18:53.193Z,100152.84
2023-01-11T06:21:20.777Z,100151.84
2023-01-11T06:23:50.866Z,100157.72
2023-01-11T06:26:21.249Z,100160.22
2023-01-11T06:28:48.805Z,100174.25
2023-01-11T06:31:17.900Z,100161.75
2023-01-11T06:33:48.119Z,100150.50
2023-01-11T06:36:16.231Z,100155.66
2023-01-11T06:38:44.494Z,100168.44
2023-01-11T06:41:13.246Z,100177.94
2023-01-11T06:43:42.155Z,100165.19
2023-01-11T06:46:14.282Z,100163.53
2023-01-11T06:48:43.059Z,100154.84
2023-01-11T06:51:13.601Z,100154.84
2023-01-11T06:53:42.013Z,100158.22
2023-01-11T06:56:13.628Z,100159.50
2023-01-11T06:58:41.330Z,100161.31
2023-01-11T07:01:09.000Z,100175.28
2023-01-11T07:03:39.007Z,100180.09
2023-01-11T07:06:06.605Z,100191.81
2023-01-11T07:08:34.049Z,100190.59
2023-01-11T07:11:01.843Z,100201.72
2023-01-11T07:13:29.298Z,100199.91
2023-01-11T07:15:58.009Z,100206.72
2023-01-11T07:18:25.819Z,100211.78
2023-01-11T07:20:53.215Z,100207.34
2023-01-11T07:23:20.687Z,100218.78
2023-01-11T07:25:49.688Z,100218.75
2023-01-11T07:28:17.119Z,100213.16
2023-01-11T07:30:57.302Z,100227.72
2023-01-11T07:33:27.170Z,100236.25
2023-01-11T07:35:55.194Z,100228.25
2023-01-11T07:38:23.073Z,100232.50
2023-01-11T07:40:50.783Z,100235.25
2023-01-11T07:43:19.984Z,100231.50
2023-01-11T07:45:51.565Z,100228.16
2023-01-11T07:48:24.871Z,100233.34
2023-01-11T07:50:53.200Z,100233.91
2023-01-11T07:53:21.223Z,100236.81
2023-01-11T07:55:48.660Z,100217.41
2023-01-11T07:58:16.254Z,100215.19
2023-01-11T08:00:46.005Z,100224.72
2023-01-11T08:03:13.926Z,100215.88
2023-01-11T08:05:41.423Z,100211.09
2023-01-11T08:08:08.850Z,100223.75
2023-01-11T08:10:36.531Z,100227.31
2023-01-11T08:13:22.603Z,100239.41
2023-01-11T08:15:50.393Z,100232.91
2023-01-11T08:18:18.029Z,100244.50
2023-01-11T08:20:45.913Z,100247.84
2023-01-11T08:23:13.790Z,100242.91
2023-01-11T08:25:41.230Z,100244.63
2023-01-11T08:28:09.009Z,100237.72
2023-01-11T08:30:37.432Z,100249.25
2023-01-11T08:33:05.804Z,100248.25
2023-01-11T08:35:38.529Z,100236.81
2023-01-11T08:38:06.996Z,100233.50
2023-01-11T08:40:34.482Z,100244.84
2023-01-11T08:43:02.017Z,100252.88
2023-01-11T08:45:29.681Z,100246.41
2023-01-11T08:47:59.258Z,100251.72
2023-01-11T08:50:26.771Z,100239.03
2023-01-11T08:52:54.559Z,100250.19
2023-01-11T08:55:23.334Z,100254.22
2023-01-11T08:57:50.739Z,100259.38
2023-01-11T09:00:19.272Z,100243.56
2023-01-11T09:02:46.765Z,100239.19
2023-01-11T09:05:16.255Z,100248.94
2023-01-11T09:07:46.240Z,100250.13
2023-01-11T09:10:13.724Z,100256.41
2023-01-11T09:12:41.115Z,100262.31
2023-01-11T09:15:09.722Z,100271.63
2023-01-11T09:17:37.324Z,100256.88
2023-01-11T09:20:05.599Z,100255.47
2023-01-11T09:22:34.144Z,100255.69
2023-01-11T09:25:01.664Z,100250.53
2023-01-11T09:27:29.932Z,100261.84
2023-01-11T09:29:57.701Z,100257.63
2023-01-11T09:32:25.272Z,100248.06
2023-01-11T09:34:57.303Z,100249.25
2023-01-11T09:37:25.174Z,100250.25
2023-01-11T09:39:52.746Z,100250.53
2023-01-11T09:42:35.003Z,100243.31
2023-01-11T09:45:11.116Z,100237.22
2023-01-11T09:48:04.439Z,100250.97
2023-01-11T09:50:40.014Z,100256.91
2023-01-11T09:53:13.907Z,100247.91
2023-01-11T09:55:46.850Z,100232.63
2023-01-11T09:58:33.027Z,100241.69
2023-01-11T10:01:21.983Z,100233.37
2023-01-11T10:04:20.566Z,100219.16
2023-01-11T10:07:01.042Z,100219.81
2023-01-11T10:18:32.543Z,100230.00
2023-01-11T10:19:04.260Z,100226.31
2023-01-11T10:21:35.385Z,100209.22
2023-01-11T10:24:07.495Z,100199.38
2023-01-11T10:26:39.968Z,100205.97
2023-01-11T10:29:16.904Z,100206.22
2023-01-11T10:32:02.694Z,100201.47
2023-01-11T10:34:53.367Z,100194.13
2023-01-11T10:37:24.077Z,100197.53
2023-01-11T10:40:23.474Z,100209.28
2023-01-11T10:42:57.238Z,100212.47
2023-01-11T10:45:46.358Z,100210.44
2023-01-11T10:48:23.032Z,100208.00
2023-01-11T10:51:06.000Z,100202.84
2023-01-11T10:53:42.391Z,100215.34
2023-01-11T10:56:16.037Z,100203.44
2023-01-11T10:58:49.695Z,100197.31
2023-01-11T11:01:38.540Z,100204.09
2023-01-11T11:04:23.584Z,100204.75
2023-01-11T11:07:14.200Z,100196.81
2023-01-11T11:09:53.355Z,100180.88
2023-01-11T11:12:25.623Z,100175.84
2023-01-11T11:15:27.629Z,100194.69
2023-01-11T11:17:55.233Z,100183.59
2023-01-11T11:20:25.449Z,100173.31
2023-01-11T11:22:55.024Z,100162.81
2023-01-11T11:25:33.712Z,100172.59
2023-01-11T11:28:04.743Z,100144.31
2023-01-11T11:30:38.225Z,100146.22
2023-01-11T11:33:19.348Z,100151.50
2023-01-11T11:35:54.842Z,100151.81
2023-01-11T11:38:30.071Z,100145.06
2023-01-11T11:41:10.151Z,100150.75
2023-01-11T11:43:42.191Z,100150.81
2023-01-11T11:46:19.439Z,100153.78
2023-01-11T11:49:12.653Z,100155.81
2023-01-11T11:51:42.763Z,100153.25
2023-01-11T11:54:30.012Z,100152.56
2023-01-11T11:57:00.207Z,100154.63
2023-01-11T11:59:30.201Z,100160.25
2023-01-11T12:02:01.160Z,100156.59
2023-01-11T12:04:33.249Z,100155.03
2023-01-11T12:07:08.557Z,100164.75
2023-01-11T12:09:36.603Z,100172.78
2023-01-11T12:12:04.465Z,100177.22
2023-01-11T12:14:35.206Z,100164.53
2023-01-11T12:17:25.228Z,100167.72
2023-01-11T12:19:52.671Z,100166.37
2023-01-11T12:22:28.046Z,100157.09
2023-01-11T12:25:13.722Z,100161.09
2023-01-11T12:28:06.801Z,100168.38
2023-01-11T12:30:46.471Z,100164.69
2023-01-11T12:33:29.184Z,100167.81
2023-01-11T12:36:22.856Z,100167.03
2023-01-11T12:39:07.683Z,100168.78
2023-01-11T12:41:44.330Z,100165.47
2023-01-11T12:44:54.852Z,100173.63
2023-01-11T12:47:31.683Z,100176.66
2023-01-11T12:50:11.335Z,100164.59
2023-01-11T12:52:44.738Z,100168.50
2023-01-11T12:55:27.376Z,100168.66
2023-01-11T12:58:36.133Z,100172.72
2023-01-11T13:01:22.249Z,100171.28
2023-01-11T13:04:23.973Z,100168.19
2023-01-11T13:07:22.935Z,100169.34
2023-01-11T13:10:05.694Z,100163.41
2023-01-11T13:12:38.144Z,100171.06
2023-01-11T13:15:27.167Z,100163.13
2023-01-11T13:18:18.307Z,100154.81
2023-01-11T13:21:02.471Z,100158.22
2023-01-11T13:23:54.721Z,100167.69
2023-01-11T13:26:31.235Z,100164.00
2023-01-11T13:29:18.664Z,100165.22
2023-01-11T13:31:47.508Z,100167.59
2023-01-11T13:35:09.408Z,100175.75
2023-01-11T13:37:55.011Z,100179.56
2023-01-11T13:40:29.599Z,100177.06
2023-01-11T13:43:04.074Z,100179.28
2023-01-11T13:45:44.556Z,100179.13
2023-01-11T13:48:26.014Z,100173.97
2023-01-11T13:51:02.932Z,100170.13
2023-01-11T13:53:47.296Z,100175.25
2023-01-11T13:56:40.939Z,100178.91
2023-01-11T13:59:31.517Z,100171.19
2023-01-11T14:02:38.532Z,100173.81
2023-01-11T14:05:18.975Z,100183.47
2023-01-11T14:07:46.389Z,100161.97
2023-01-11T14:10:23.748Z,100182.91
2023-01-11T14:13:02.834Z,100178.34
2023-01-11T14:16:09.049Z,100173.38
2023-01-11T14:18:46.689Z,100175.06
2023-01-11T14:21:22.654Z,100186.56
2023-01-11T14:23:52.170Z,100183.66
2023-01-11T14:26:28.999Z,100182.56
2023-01-11T14:29:29.167Z,100176.37
2023-01-11T14:32:21.512Z,100169.22
2023-01-11T14:34:48.838Z,100170.88
2023-01-11T14:37:16.490Z,100171.50
2023-01-11T14:39:55.811Z,100169.41
2023-01-11T14:43:01.768Z,100163.56
2023-01-11T14:46:06.755Z,100176.06
2023-01-11T14:49:03.119Z,100171.44
2023-01-11T14:51:55.842Z,100175.91
2023-01-11T14:54:40.700Z,100172.59
2023-01-11T14:57:38.174Z,100168.16
2023-01-11T15:00:26.113Z,100174.03
2023-01-11T15:02:59.715Z,100162.91
2023-01-11T15:05:31.026Z,100167.13
2023-01-11T15:08:23.750Z,100174.38
2023-01-11T15:11:06.200Z,100162.56
2023-01-11T15:13:44.418Z,100173.03
2023-01-11T15:16:41.036Z,100150.88
2023-01-11T15:19:11.910Z,100151.81
2023-01-11T15:21:47.917Z,100159.34
2023-01-11T15:24:30.546Z,100176.53
2023-01-11T15:27:00.436Z,100176.22
2023-01-11T15:29:30.915Z,100173.16
2023-01-11T15:32:06.883Z,100181.03
2023-01-11T15:34:34.293Z,100175.94
2023-01-11T15:37:06.519Z,100172.44
2023-01-11T15:39:36.674Z,100171.75
2023-01-11T15:42:17.689Z,100178.75
2023-01-11T15:45:01.937Z,100175.41
2023-01-11T15:47:54.628Z,100175.69
2023-01-11T15:50:40.472Z,100180.56
2023-01-11T15:53:36.269Z,100172.97
2023-01-11T15:56:37.642Z,100162.53
2023-01-11T15:59:17.927Z,100155.56
2023-01-11T16:02:07.209Z,100160.06
2023-01-11T16:05:06.020Z,100161.09
2023-01-11T16:07:52.017Z,100167.62
2023-01-11T16:10:27.785Z,100169.03
2023-01-11T16:13:03.922Z,100173.31
2023-01-11T16:15:37.589Z,100178.22
2023-01-11T16:18:16.980Z,100176.97
2023-01-11T16:20:56.177Z,100170.88
2023-01-11T16:23:24.095Z,100166.91
2023-01-11T16:25:56.220Z,100169.50
2023-01-11T16:28:25.055Z,100161.38
2023-01-11T16:30:56.188Z,100158.53
2023-01-11T16:33:26.809Z,100152.66
2023-01-11T16:36:13.320Z,100153.28
2023-01-11T16:39:03.435Z,100159.75
2023-01-11T16:41:43.789Z,100156.63
2023-01-11T16:44:49.967Z,100158.50
2023-01-11T16:47:19.330Z,100161.03
2023-01-11T16:49:49.397Z,100161.06
2023-01-11T16:52:28.660Z,100168.84
2023-01-11T16:54:57.367Z,100170.38
2023-01-11T16:57:35.893Z,100183.09
2023-01-11T17:00:22.399Z,100186.19
2023-01-11T17:03:21.669Z,100184.41
2023-01-11T17:06:02.704Z,100190.53
2023-01-11T17:08:35.139Z,100187.28
2023-01-11T17:11:46.794Z,100177.22
2023-01-11T17:14:18.183Z,100171.56
2023-01-11T17:16:48.751Z,100176.75
2023-01-11T17:19:22.134Z,100174.69
2023-01-11T17:21:52.704Z,100176.88
2023-01-11T17:24:24.881Z,100180.25
2023-01-11T17:26:58.887Z,100185.81
2023-01-11T17:29:34.074Z,100177.94
2023-01-11T17:32:04.762Z,100177.25
2023-01-11T17:34:35.031Z,100179.34
2023-01-11T17:37:10.481Z,100176.63
2023-01-11T17:39:38.526Z,100183.75
2023-01-11T17:42:26.405Z,100186.53
2023-01-11T17:45:13.540Z,100196.19
2023-01-11T17:48:12.612Z,100194.62
2023-01-11T17:50:46.933Z,100205.28
2023-01-11T17:53:22.214Z,100203.22
2023-01-11T17:55:54.848Z,100197.56
2023-01-11T17:58:26.400Z,100196.44
2023-01-11T18:01:15.066Z,100198.88
2023-01-11T18:03:53.499Z,100207.28
2023-01-11T18:06:29.600Z,100213.34
2023-01-11T18:08:58.262Z,100204.69
2023-01-11T18:11:37.271Z,100203.63
2023-01-11T18:14:08.134Z,100199.63
2023-01-11T18:16:35.596Z,100198.91
2023-01-11T18:19:23.439Z,100199.03
2023-01-11T18:21:53.328Z,100212.00
2023-01-11T18:24:27.512Z,100213.91
2023-01-11T18:27:15.668Z,100213.91
2023-01-11T18:29:43.203Z,100215.00
2023-01-11T18:32:12.375Z,100209.44
2023-01-11T18:34:40.007Z,100208.97
2023-01-11T18:37:10.987Z,100214.91
2023-01-11T18:39:40.518Z,100211.69
2023-01-11T18:42:15.072Z,100218.50
2023-01-11T18:44:47.046Z,100221.16
2023-01-11T18:47:17.228Z,100230.22
2023-01-11T18:49:45.712Z,100238.44
2023-01-11T18:52:13.946Z,100232.97
2023-01-11T18:54:42.433Z,100236.06
2023-01-11T18:57:11.602Z,100242.75
2023-01-11T18:59:39.716Z,100237.16
2023-01-11T19:04:54.675Z,100250.31
2023-01-11T19:07:24.355Z,100244.37
2023-01-11T19:09:55.236Z,100258.69
2023-01-11T19:12:23.931Z,100257.50
2023-01-11T19:14:51.822Z,100244.00
2023-01-11T19:17:19.943Z,100251.63
2023-01-11T19:19:47.667Z,100252.88
2023-01-11T19:22:15.694Z,100257.56
2023-01-11T19:24:43.692Z,100263.34
2023-01-11T19:27:13.710Z,100259.50
2023-01-11T19:29:42.246Z,100264.94
2023-01-11T19:32:10.103Z,100263.25
2023-01-11T19:34:39.927Z,100262.91
2023-01-11T19:37:16.204Z,100270.22
2023-01-11T19:39:44.317Z,100268.09
2023-01-11T19:42:12.830Z,100265.25
2023-01-11T19:44:41.347Z,100269.12
2023-01-11T19:47:13.183Z,100272.66
2023-01-11T19:49:43.027Z,100264.94
2023-01-11T19:52:19.400Z,100278.72
2023-01-11T19:54:49.384Z,100286.75
2023-01-11T19:57:20.954Z,100281.94
2023-01-11T19:59:50.246Z,100278.88
2023-01-11T20:02:20.259Z,100279.00
2023-01-11T20:04:50.293Z,100278.91
2023-01-11T20:07:20.742Z,100273.00
2023-01-11T20:09:49.082Z,100267.31
2023-01-11T20:12:16.985Z,100277.72
2023-01-11T20:14:46.816Z,100269.97
2023-01-11T20:17:19.321Z,100265.84
2023-01-11T20:19:55.593Z,100262.22
2023-01-11T20:22:24.491Z,100266.06
2023-01-11T20:24:56.067Z,100268.19
2023-01-11T20:27:24.863Z,100269.41
2023-01-11T20:29:53.877Z,100265.03
2023-01-11T20:32:40.524Z,100261.72
2023-01-11T20:35:10.609Z,100263.47
2023-01-11T20:37:38.523Z,100270.91
2023-01-11T20:40:08.929Z,100270.03
2023-01-11T20:42:42.486Z,100272.25
2023-01-11T20:45:10.910Z,100269.00
2023-01-11T20:47:38.896Z,100266.12
2023-01-11T20:50:07.253Z,100266.53
2023-01-11T20:52:38.536Z,100267.69
2023-01-11T20:55:08.376Z,100275.94
2023-01-11T20:57:36.034Z,100279.94
2023-01-11T21:00:04.528Z,100276.38
2023-01-11T21:02:32.527Z,100279.44
2023-01-11T21:05:00.335Z,100281.59
2023-01-11T21:07:28.226Z,100294.22
2023-01-11T21:09:56.496Z,100289.25
2023-01-11T21:12:26.104Z,100292.72
2023-01-11T21:14:53.772Z,100297.75
2023-01-11T21:17:21.795Z,100294.34
2023-01-11T21:19:50.563Z,100291.78
2023-01-11T21:22:18.351Z,100296.66
2023-01-11T21:24:48.382Z,100304.03
2023-01-11T21:27:15.892Z,100307.81
2023-01-11T21:29:43.390Z,100303.97
2023-01-11T21:32:11.103Z,100304.59
2023-01-11T21:34:38.562Z,100306.38
2023-01-11T21:37:05.997Z,100314.66
2023-01-11T21:39:33.784Z,100326.56
2023-01-11T21:42:03.564Z,100320.41
2023-01-11T21:44:33.663Z,100322.78
2023-01-11T21:47:03.446Z,100330.12
2023-01-11T21:49:31.716Z,100345.66
2023-01-11T21:51:59.193Z,100335.06
2023-01-11T21:54:27.017Z,100339.13
2023-01-11T21:56:54.451Z,100331.97
2023-01-11T21:59:22.433Z,100333.22
2023-01-11T22:01:50.324Z,100328.66
2023-01-11T22:04:19.894Z,100325.56
2023-01-11T22:06:51.308Z,100330.62
2023-01-11T22:09:19.952Z,100332.22
2023-01-11T22:11:47.521Z,100331.22
2023-01-11T22:14:14.957Z,100317.53
2023-01-11T22:16:42.932Z,100319.59
2023-01-11T22:19:10.463Z,100323.25
2023-01-11T22:21:38.221Z,100325.84
2023-01-11T22:24:08.411Z,100334.12
2023-01-11T22:26:38.798Z,100334.41
2023-01-11T22:29:17.264Z,100337.06
2023-01-11T22:31:51.449Z,100332.84
2023-01-11T22:34:19.838Z,100332.19
2023-01-11T22:36:47.371Z,100336.59
2023-01-11T22:39:16.167Z,100330.72
2023-01-11T22:41:45.866Z,100335.53
2023-01-11T22:44:13.864Z,100345.81
2023-01-11T22:46:41.791Z,100342.72
2023-01-11T22:49:10.472Z,100333.50
2023-01-11T22:51:37.981Z,100334.44
2023-01-11T22:54:05.430Z,100339.25
2023-01-11T22:56:33.428Z,100339.94
2023-01-11T22:59:01.047Z,100338.63
2023-01-11T23:01:31.057Z,100343.78
2023-01-11T23:03:59.191Z,100350.66
2023-01-11T23:06:28.809Z,100345.03
2023-01-11T23:08:57.786Z,100350.81
2023-01-11T23:11:46.563Z,100355.25
2023-01-11T23:14:16.170Z,100350.44
2023-01-11T23:16:45.070Z,100354.00
2023-01-11T23:19:14.437Z,100345.53
2023-01-11T23:21:43.456Z,100333.97
2023-01-11T23:24:12.366Z,100334.56
2023-01-11T23:26:40.228Z,100335.06
2023-01-11T23:29:07.760Z,100327.88
2023-01-11T23:31:35.768Z,100326.28
2023-01-11T23:34:06.914Z,100331.28
2023-01-11T23:36:36.951Z,100326.56
2023-01-11T23:39:05.904Z,100326.81
2023-01-11T23:41:52.041Z,100318.37
2023-01-11T23:44:19.838Z,100314.09
2023-01-11T23:47:05.719Z,100319.44
2023-01-11T23:49:33.781Z,100330.16
2023-01-11T23:52:01.447Z,100334.66
2023-01-11T23:54:32.118Z,100327.09
2023-01-11T23:57:00.650Z,100336.28
2023-01-11T23:59:28.362Z,100338.09
